createdAt,value
2023-03-29T00:01:00.201Z,101461.00
2023-03-29T00:03:27.824Z,101452.69
2023-03-29T00:06:05.670Z,101438.19
2023-03-29T00:08:38.508Z,101440.84
2023-03-29T00:11:05.356Z,101444.94
2023-03-29T00:13:31.991Z,101425.84
2023-03-29T00:15:58.607Z,101436.28
2023-03-29T00:18:26.547Z,101431.13
2023-03-29T00:20:58.076Z,101427.03
2023-03-29T00:23:25.386Z,101425.28
2023-03-29T00:25:55.841Z,101424.22
2023-03-29T00:28:22.926Z,101416.50
2023-03-29T00:30:51.004Z,101419.88
2023-03-29T00:33:20.662Z,101418.38
2023-03-29T00:35:50.583Z,101412.41
2023-03-29T00:38:17.254Z,101410.53
2023-03-29T00:40:47.198Z,101418.25
2023-03-29T00:43:15.372Z,101416.50
2023-03-29T00:45:42.513Z,101413.91
2023-03-29T00:48:12.343Z,101418.25
2023-03-29T00:50:39.452Z,101410.53
2023-03-29T00:53:27.800Z,101415.00
2023-03-29T00:56:07.783Z,101416.59
2023-03-29T00:58:43.538Z,101401.16
2023-03-29T01:01:26.107Z,101394.25
2023-03-29T01:03:59.682Z,101382.31
2023-03-29T01:06:29.590Z,101375.38
2023-03-29T01:09:03.124Z,101367.66
2023-03-29T01:11:38.878Z,101370.50
2023-03-29T01:14:11.764Z,101368.72
2023-03-29T01:16:38.703Z,101357.59
2023-03-29T01:19:08.570Z,101354.06
2023-03-29T01:22:14.810Z,101355.03
2023-03-29T01:25:11.346Z,101338.63
2023-03-29T01:27:37.827Z,101340.25
2023-03-29T01:30:16.214Z,101336.03
2023-03-29T01:32:50.557Z,101333.59
2023-03-29T01:35:25.357Z,101329.38
2023-03-29T01:38:20.657Z,101325.88
2023-03-29T01:40:47.485Z,101328.31
2023-03-29T01:43:26.108Z,101328.44
2023-03-29T01:46:04.937Z,101334.41
2023-03-29T01:48:40.586Z,101339.56
2023-03-29T01:51:16.245Z,101329.38
2023-03-29T01:53:47.612Z,101341.31
2023-03-29T01:56:19.481Z,101328.56
2023-03-29T01:58:50.198Z,101319.19
2023-03-29T02:01:23.011Z,101317.44
2023-03-29T02:03:54.697Z,101320.84
2023-03-29T02:06:25.679Z,101311.34
2023-03-29T02:08:53.298Z,101303.50
2023-03-29T02:11:20.763Z,101301.84
2023-03-29T02:13:47.334Z,101298.34
2023-03-29T02:16:15.475Z,101299.13
2023-03-29T02:18:46.543Z,101290.47
2023-03-29T02:21:21.302Z,101286.41
2023-03-29T02:23:49.753Z,101278.53
2023-03-29T02:26:17.663Z,101280.19
2023-03-29T02:28:44.455Z,101264.72
2023-03-29T02:31:26.270Z,101267.03
2023-03-29T02:34:11.400Z,101268.66
2023-03-29T02:36:46.757Z,101264.34
2023-03-29T02:39:15.874Z,101268.56
2023-03-29T02:41:47.082Z,101276.28
2023-03-29T02:44:18.813Z,101263.41
2023-03-29T02:46:48.902Z,101259.88
2023-03-29T02:49:15.868Z,101260.69
2023-03-29T02:51:43.021Z,101253.63
2023-03-29T02:54:17.855Z,101263.03
2023-03-29T02:56:49.983Z,101249.84
2023-03-29T02:59:19.556Z,101248.09
2023-03-29T03:01:46.505Z,101253.25
2023-03-29T03:04:13.363Z,101250.69
2023-03-29T03:06:40.621Z,101249.75
2023-03-29T03:09:07.696Z,101246.34
2023-03-29T03:11:34.341Z,101238.47
2023-03-29T03:14:01.995Z,101241.88
2023-03-29T03:16:28.905Z,101244.31
2023-03-29T03:18:55.745Z,101240.81
2023-03-29T03:21:23.251Z,101242.41
2023-03-29T03:23:50.128Z,101243.13
2023-03-29T03:26:18.120Z,101227.78
2023-03-29T03:28:45.812Z,101232.81
2023-03-29T03:31:16.148Z,101225.88
2023-03-29T03:33:42.889Z,101224.94
2023-03-29T03:36:11.285Z,101220.63
2023-03-29T03:38:38.942Z,101220.63
2023-03-29T03:41:09.207Z,101213.72
2023-03-29T03:43:36.084Z,101224.69
2023-03-29T03:46:02.719Z,101228.06
2023-03-29T03:48:29.456Z,101227.13
2023-03-29T03:50:58.345Z,101221.97
2023-03-29T03:53:27.256Z,101223.63
2023-03-29T03:55:57.910Z,101222.66
2023-03-29T03:58:24.703Z,101221.06
2023-03-29T04:00:51.737Z,101227.81
2023-03-29T04:03:18.851Z,101224.41
2023-03-29T04:05:46.782Z,101220.09
2023-03-29T04:08:14.931Z,101213.19
2023-03-29T04:10:42.890Z,101211.53
2023-03-29T04:13:09.633Z,101199.59
2023-03-29T04:15:39.944Z,101201.34
2023-03-29T04:18:07.793Z,101198.09
2023-03-29T04:20:34.736Z,101205.00
2023-03-29T04:23:02.034Z,101207.72
2023-03-29T04:25:28.932Z,101197.41
2023-03-29T04:27:56.091Z,101193.09
2023-03-29T04:30:23.027Z,101194.84
2023-03-29T04:32:49.855Z,101196.59
2023-03-29T04:35:16.597Z,101193.34
2023-03-29T04:37:43.220Z,101193.19
2023-03-29T04:40:14.266Z,101195.78
2023-03-29T04:42:46.092Z,101189.78
2023-03-29T04:45:14.364Z,101182.06
2023-03-29T04:47:42.117Z,101180.31
2023-03-29T04:50:09.261Z,101179.50
2023-03-29T04:52:36.136Z,101173.53
2023-03-29T04:55:05.268Z,101175.28
2023-03-29T04:57:31.913Z,101178.69
2023-03-29T04:59:58.516Z,101174.47
2023-03-29T05:02:25.192Z,101181.38
2023-03-29T05:04:52.205Z,101183.03
2023-03-29T05:07:19.568Z,101179.50
2023-03-29T05:09:46.265Z,101184.63
2023-03-29T05:12:13.183Z,101183.03
2023-03-29T05:14:39.786Z,101178.69
2023-03-29T05:17:06.581Z,101173.66
2023-03-29T05:19:33.759Z,101186.44
2023-03-29T05:22:00.831Z,101176.13
2023-03-29T05:24:27.691Z,101182.78
2023-03-29T05:26:54.444Z,101181.13
2023-03-29T05:29:21.751Z,101168.25
2023-03-29T05:31:48.363Z,101181.00
2023-03-29T05:34:15.066Z,101172.31
2023-03-29T05:36:42.895Z,101168.66
2023-03-29T05:39:10.965Z,101162.56
2023-03-29T05:41:37.947Z,101165.94
2023-03-29T05:44:06.324Z,101156.47
2023-03-29T05:46:32.967Z,101169.22
2023-03-29T05:48:59.577Z,101167.47
2023-03-29T05:51:26.186Z,101160.53
2023-03-29T05:53:53.291Z,101159.56
2023-03-29T05:56:20.060Z,101161.09
2023-03-29T05:58:46.759Z,101161.09
2023-03-29T06:01:14.507Z,101152.28
2023-03-29T06:03:41.436Z,101151.34
2023-03-29T06:06:09.615Z,101152.84
2023-03-29T06:08:36.459Z,101155.13
2023-03-29T06:11:05.837Z,101157.44
2023-03-29T06:13:34.128Z,101157.06
2023-03-29T06:16:01.293Z,101163.84
2023-03-29T06:18:28.188Z,101160.97
2023-03-29T06:20:55.015Z,101157.31
2023-03-29T06:23:22.486Z,101154.34
2023-03-29T06:25:51.559Z,101153.00
2023-03-29T06:28:20.331Z,101156.25
2023-03-29T06:30:47.689Z,101159.38
2023-03-29T06:33:14.466Z,101159.94
2023-03-29T06:35:45.343Z,101161.28
2023-03-29T06:38:12.029Z,101160.06
2023-03-29T06:40:38.811Z,101165.78
2023-03-29T06:43:06.667Z,101169.84
2023-03-29T06:45:36.357Z,101162.53
2023-03-29T06:48:03.958Z,101172.56
2023-03-29T06:50:30.988Z,101177.59
2023-03-29T06:52:57.627Z,101177.47
2023-03-29T06:55:24.951Z,101178.13
2023-03-29T06:57:51.607Z,101185.63
2023-03-29T07:00:28.295Z,101178.81
2023-03-29T07:02:56.325Z,101185.31
2023-03-29T07:05:24.047Z,101184.38
2023-03-29T07:07:57.493Z,101190.91
2023-03-29T07:10:32.237Z,101186.13
2023-03-29T07:13:00.899Z,101184.53
2023-03-29T07:15:29.435Z,101190.06
2023-03-29T07:17:58.015Z,101182.88
2023-03-29T07:20:27.008Z,101180.81
2023-03-29T07:22:53.853Z,101175.25
2023-03-29T07:25:22.558Z,101180.97
2023-03-29T07:27:49.757Z,101188.41
2023-03-29T07:30:22.907Z,101193.16
2023-03-29T07:32:51.366Z,101196.16
2023-03-29T07:35:18.642Z,101193.44
2023-03-29T07:37:46.378Z,101190.44
2023-03-29T07:40:18.644Z,101198.56
2023-03-29T07:42:47.174Z,101193.94
2023-03-29T07:45:16.468Z,101190.78
2023-03-29T07:47:50.533Z,101187.66
2023-03-29T07:50:17.585Z,101188.06
2023-03-29T07:52:44.786Z,101198.69
2023-03-29T07:55:13.242Z,101192.94
2023-03-29T07:57:40.439Z,101194.94
2023-03-29T08:00:26.261Z,101195.50
2023-03-29T08:02:52.907Z,101192.31
2023-03-29T08:05:37.775Z,101189.31
2023-03-29T08:08:07.630Z,101193.63
2023-03-29T08:10:37.341Z,101184.72
2023-03-29T08:13:07.375Z,101191.56
2023-03-29T08:15:41.514Z,101190.47
2023-03-29T08:18:08.672Z,101192.09
2023-03-29T08:20:35.350Z,101189.66
2023-03-29T08:23:02.106Z,101192.06
2023-03-29T08:25:28.697Z,101194.50
2023-03-29T08:27:55.311Z,101204.59
2023-03-29T08:30:22.081Z,101194.44
2023-03-29T08:32:52.197Z,101184.88
2023-03-29T08:35:20.484Z,101196.22
2023-03-29T08:37:47.274Z,101193.63
2023-03-29T08:40:21.670Z,101195.91
2023-03-29T08:43:01.827Z,101198.06
2023-03-29T08:46:03.874Z,101209.00
2023-03-29T08:48:37.734Z,101201.34
2023-03-29T08:51:20.040Z,101199.50
2023-03-29T08:53:52.575Z,101206.75
2023-03-29T08:56:25.153Z,101196.72
2023-03-29T08:58:54.485Z,101196.72
2023-03-29T09:01:22.736Z,101192.19
2023-03-29T09:04:28.409Z,101190.25
2023-03-29T09:06:55.692Z,101190.63
2023-03-29T09:09:25.541Z,101179.34
2023-03-29T09:12:13.578Z,101169.91
2023-03-29T09:15:00.330Z,101167.41
2023-03-29T09:17:51.629Z,101175.44
2023-03-29T09:20:30.484Z,101169.00
2023-03-29T09:23:12.436Z,101174.06
2023-03-29T09:26:00.110Z,101168.88
2023-03-29T09:28:55.040Z,101171.19
2023-03-29T09:31:26.208Z,101175.88
2023-03-29T09:33:58.740Z,101166.31
2023-03-29T09:36:37.076Z,101173.94
2023-03-29T09:39:05.073Z,101174.78
2023-03-29T09:42:05.244Z,101182.25
2023-03-29T09:44:37.377Z,101177.22
2023-03-29T09:47:13.409Z,101174.50
2023-03-29T09:49:47.128Z,101169.44
2023-03-29T09:52:17.145Z,101175.13
2023-03-29T09:54:44.454Z,101182.91
2023-03-29T09:57:17.046Z,101171.06
2023-03-29T09:59:46.151Z,101170.75
2023-03-29T10:02:13.952Z,101167.16
2023-03-29T10:04:42.959Z,101164.06
2023-03-29T10:07:18.329Z,101163.94
2023-03-29T10:09:46.388Z,101173.84
2023-03-29T10:12:14.084Z,101174.81
2023-03-29T10:14:48.632Z,101166.19
2023-03-29T10:17:25.588Z,101166.84
2023-03-29T10:19:57.201Z,101156.25
2023-03-29T10:22:34.837Z,101157.53
2023-03-29T10:25:02.153Z,101160.81
2023-03-29T10:27:32.079Z,101159.97
2023-03-29T10:30:01.118Z,101163.06
2023-03-29T10:32:34.934Z,101166.31
2023-03-29T10:35:16.863Z,101158.03
2023-03-29T10:37:47.582Z,101150.06
2023-03-29T10:40:25.817Z,101155.72
2023-03-29T10:42:54.091Z,101156.34
2023-03-29T10:45:25.829Z,101156.47
2023-03-29T10:47:56.047Z,101166.69
2023-03-29T10:50:22.955Z,101156.41
2023-03-29T10:52:50.542Z,101151.81
2023-03-29T10:55:17.378Z,101146.09
2023-03-29T10:57:59.490Z,101143.28
2023-03-29T11:00:50.051Z,101141.31
2023-03-29T11:03:40.208Z,101148.63
2023-03-29T11:06:07.823Z,101146.34
2023-03-29T11:08:50.517Z,101146.03
2023-03-29T11:11:35.544Z,101136.88
2023-03-29T11:14:14.197Z,101138.03
2023-03-29T11:16:51.152Z,101129.50
2023-03-29T11:19:29.557Z,101130.22
2023-03-29T11:22:29.032Z,101120.31
2023-03-29T11:25:21.105Z,101141.47
2023-03-29T11:28:17.271Z,101126.16
2023-03-29T11:31:13.403Z,101130.41
2023-03-29T11:33:48.893Z,101123.84
2023-03-29T11:36:42.260Z,101126.84
2023-03-29T11:39:30.607Z,101131.97
2023-03-29T11:42:17.648Z,101139.59
2023-03-29T11:44:47.327Z,101132.94
2023-03-29T11:47:26.776Z,101132.50
2023-03-29T11:50:22.870Z,101123.53
2023-03-29T11:52:54.491Z,101115.09
2023-03-29T11:55:28.905Z,101116.94
2023-03-29T11:57:56.762Z,101121.06
2023-03-29T12:00:31.069Z,101108.03
2023-03-29T12:03:19.705Z,101105.09
2023-03-29T12:05:54.958Z,101096.91
2023-03-29T12:08:40.418Z,101108.69
2023-03-29T12:11:22.985Z,101108.56
2023-03-29T12:14:02.454Z,101098.34
2023-03-29T12:16:52.139Z,101100.22
2023-03-29T12:19:25.841Z,101101.91
2023-03-29T12:21:56.117Z,101096.59
2023-03-29T12:24:25.968Z,101095.59
2023-03-29T12:27:20.008Z,101093.63
2023-03-29T12:30:13.198Z,101095.25
2023-03-29T12:33:01.378Z,101087.25
2023-03-29T12:35:55.844Z,101089.03
2023-03-29T12:38:25.485Z,101100.47
2023-03-29T12:40:57.723Z,101092.84
2023-03-29T12:43:27.542Z,101090.22
2023-03-29T12:46:21.645Z,101091.09
2023-03-29T12:48:54.379Z,101089.41
2023-03-29T12:51:29.387Z,101083.03
2023-03-29T12:54:07.789Z,101081.59
2023-03-29T12:56:56.303Z,101077.72
2023-03-29T12:59:22.867Z,101084.72
2023-03-29T13:02:00.292Z,101080.97
2023-03-29T13:04:57.453Z,101078.34
2023-03-29T13:07:24.190Z,101074.06
2023-03-29T13:09:52.885Z,101073.16
2023-03-29T13:12:27.185Z,101087.34
2023-03-29T13:14:59.133Z,101081.66
2023-03-29T13:17:50.251Z,101077.78
2023-03-29T13:20:56.918Z,101079.41
2023-03-29T13:23:31.806Z,101071.41
2023-03-29T13:26:33.532Z,101069.91
2023-03-29T13:29:26.804Z,101062.53
2023-03-29T13:32:00.883Z,101063.09
2023-03-29T13:34:46.495Z,101051.13
2023-03-29T13:37:25.102Z,101045.03
2023-03-29T13:39:54.700Z,101049.44
2023-03-29T13:42:26.561Z,101055.81
2023-03-29T13:44:53.949Z,101056.88
2023-03-29T13:47:32.482Z,101041.84
2023-03-29T13:50:05.415Z,101042.66
2023-03-29T13:52:40.209Z,101039.97
2023-03-29T13:55:24.477Z,101030.72
2023-03-29T13:58:12.177Z,101027.69
2023-03-29T14:00:49.754Z,101027.31
2023-03-29T14:03:20.855Z,101020.03
2023-03-29T14:05:50.169Z,101017.78
2023-03-29T14:08:27.327Z,101018.75
2023-03-29T14:10:55.259Z,101011.47
2023-03-29T14:13:25.821Z,101007.28
2023-03-29T14:15:58.684Z,101011.22
2023-03-29T14:18:28.726Z,101003.31
2023-03-29T14:20:56.345Z,101000.25
2023-03-29T14:23:27.206Z,101003.22
2023-03-29T14:25:53.896Z,100998.53
2023-03-29T14:28:28.546Z,100995.31
2023-03-29T14:30:56.268Z,100997.63
2023-03-29T14:33:27.933Z,100999.53
2023-03-29T14:36:01.121Z,100994.94
2023-03-29T14:38:29.320Z,100990.00
2023-03-29T14:40:59.908Z,100986.88
2023-03-29T14:43:30.320Z,100979.56
2023-03-29T14:45:58.741Z,100975.25
2023-03-29T14:48:26.341Z,100976.00
2023-03-29T14:50:53.153Z,100975.25
2023-03-29T14:53:22.103Z,100978.56
2023-03-29T14:55:52.401Z,100969.56
2023-03-29T14:58:31.933Z,100969.03
2023-03-29T15:01:13.994Z,100974.25
2023-03-29T15:03:57.716Z,100965.59
2023-03-29T15:06:26.495Z,100973.34
2023-03-29T15:09:04.181Z,100980.19
2023-03-29T15:11:34.153Z,100980.00
2023-03-29T15:14:02.884Z,100969.75
2023-03-29T15:16:30.817Z,100960.28
2023-03-29T15:18:58.550Z,100957.69
2023-03-29T15:21:31.907Z,100954.09
2023-03-29T15:24:02.045Z,100939.84
2023-03-29T15:26:38.334Z,100945.06
2023-03-29T15:29:17.025Z,100925.63
2023-03-29T15:31:55.006Z,100923.03
2023-03-29T15:34:39.917Z,100928.63
2023-03-29T15:37:07.643Z,100929.63
2023-03-29T15:39:35.021Z,100938.44
2023-03-29T15:42:01.967Z,100932.59
2023-03-29T15:44:33.498Z,100928.56
2023-03-29T15:47:00.381Z,100919.94
2023-03-29T15:49:27.412Z,100914.09
2023-03-29T15:51:54.790Z,100903.56
2023-03-29T15:54:22.481Z,100890.91
2023-03-29T15:56:52.933Z,100881.66
2023-03-29T15:59:19.803Z,100884.47
2023-03-29T16:01:46.941Z,100886.41
2023-03-29T16:04:16.599Z,100883.81
2023-03-29T16:06:45.665Z,100879.41
2023-03-29T16:09:12.752Z,100873.84
2023-03-29T16:11:41.288Z,100872.66
2023-03-29T16:14:31.610Z,100864.03
2023-03-29T16:17:00.378Z,100868.28
2023-03-29T16:19:28.488Z,100857.84
2023-03-29T16:21:56.724Z,100850.81
2023-03-29T16:24:26.322Z,100835.16
2023-03-29T16:26:55.838Z,100832.53
2023-03-29T16:29:23.851Z,100831.13
2023-03-29T16:31:51.468Z,100830.50
2023-03-29T16:34:19.282Z,100828.69
2023-03-29T16:36:49.612Z,100823.84
2023-03-29T16:39:17.410Z,100824.25
2023-03-29T16:41:45.301Z,100826.84
2023-03-29T16:44:18.590Z,100822.81
2023-03-29T16:46:46.810Z,100821.38
2023-03-29T16:49:18.758Z,100813.75
2023-03-29T16:51:46.945Z,100806.91
2023-03-29T16:54:14.668Z,100811.94
2023-03-29T16:56:41.538Z,100808.69
2023-03-29T16:59:09.309Z,100813.91
2023-03-29T17:01:36.973Z,100804.50
2023-03-29T17:04:04.198Z,100803.50
2023-03-29T17:06:32.713Z,100790.84
2023-03-29T17:08:59.499Z,100781.22
2023-03-29T17:11:26.913Z,100786.63
2023-03-29T17:13:54.007Z,100781.59
2023-03-29T17:16:21.110Z,100795.00
2023-03-29T17:18:47.883Z,100791.75
2023-03-29T17:21:14.787Z,100785.94
2023-03-29T17:23:41.391Z,100795.34
2023-03-29T17:26:08.104Z,100792.13
2023-03-29T17:28:35.025Z,100791.31
2023-03-29T17:31:07.522Z,100786.28
2023-03-29T17:33:35.003Z,100779.44
2023-03-29T17:36:02.628Z,100779.03
2023-03-29T17:38:30.697Z,100783.63
2023-03-29T17:40:57.458Z,100778.75
2023-03-29T17:43:24.083Z,100765.94
2023-03-29T17:45:52.303Z,100758.94
2023-03-29T17:48:19.485Z,100755.69
2023-03-29T17:50:46.571Z,100757.03
2023-03-29T17:53:13.562Z,100751.03
2023-03-29T17:55:41.052Z,100751.22
2023-03-29T17:58:08.312Z,100725.53
2023-03-29T18:00:35.737Z,100716.47
2023-03-29T18:03:03.925Z,100721.25
2023-03-29T18:05:30.743Z,100719.63
2023-03-29T18:07:57.548Z,100727.00
2023-03-29T18:10:24.194Z,100728.16
2023-03-29T18:12:50.711Z,100720.34
2023-03-29T18:15:17.696Z,100718.72
2023-03-29T18:17:44.970Z,100719.06
2023-03-29T18:20:12.809Z,100718.44
2023-03-29T18:22:44.120Z,100713.25
2023-03-29T18:25:11.136Z,100711.66
2023-03-29T18:27:39.516Z,100710.84
2023-03-29T18:30:08.610Z,100705.44
2023-03-29T18:32:35.854Z,100701.22
2023-03-29T18:35:03.269Z,100672.75
2023-03-29T18:37:29.882Z,100695.56
2023-03-29T18:39:57.661Z,100696.75
2023-03-29T18:42:24.367Z,100692.34
2023-03-29T18:44:51.326Z,100692.53
2023-03-29T18:47:18.437Z,100680.34
2023-03-29T18:49:46.255Z,100683.72
2023-03-29T18:52:12.949Z,100684.53
2023-03-29T18:54:39.619Z,100690.75
2023-03-29T18:57:06.432Z,100693.34
2023-03-29T18:59:35.922Z,100688.16
2023-03-29T19:02:03.116Z,100689.75
2023-03-29T19:04:29.982Z,100690.75
2023-03-29T19:06:56.723Z,100686.16
2023-03-29T19:09:23.360Z,100686.97
2023-03-29T19:11:50.000Z,100684.19
2023-03-29T19:14:17.659Z,100681.56
2023-03-29T19:16:44.296Z,100685.78
2023-03-29T19:19:11.076Z,100690.81
2023-03-29T19:21:38.568Z,100679.78
2023-03-29T19:24:07.754Z,100667.53
2023-03-29T19:26:34.438Z,100664.16
2023-03-29T19:29:01.482Z,100658.94
2023-03-29T19:31:28.442Z,100649.50
2023-03-29T19:33:55.396Z,100655.72
2023-03-29T19:36:22.610Z,100647.91
2023-03-29T19:38:49.196Z,100635.25
2023-03-29T19:41:15.975Z,100639.03
2023-03-29T19:43:42.656Z,100639.03
2023-03-29T19:46:12.874Z,100629.59
2023-03-29T19:48:39.931Z,100622.78
2023-03-29T19:51:06.770Z,100621.00
2023-03-29T19:53:34.933Z,100622.19
2023-03-29T19:56:04.334Z,100619.56
2023-03-29T19:58:31.524Z,100614.53
2023-03-29T20:00:58.227Z,100621.72
2023-03-29T20:03:28.490Z,100611.50
2023-03-29T20:05:58.427Z,100615.28
2023-03-29T20:08:25.644Z,100614.66
2023-03-29T20:11:10.207Z,100609.66
2023-03-29T20:13:44.869Z,100610.00
2023-03-29T20:16:14.641Z,100594.75
2023-03-29T20:18:41.653Z,100596.72
2023-03-29T20:21:09.848Z,100588.50
2023-03-29T20:23:36.859Z,100595.66
2023-03-29T20:26:03.526Z,100584.84
2023-03-29T20:28:30.428Z,100578.19
2023-03-29T20:30:57.288Z,100582.59
2023-03-29T20:33:23.992Z,100582.59
2023-03-29T20:35:50.878Z,100580.78
2023-03-29T20:38:17.523Z,100577.38
2023-03-29T20:40:44.950Z,100570.38
2023-03-29T20:43:13.427Z,100550.53
2023-03-29T20:45:52.769Z,100546.34
2023-03-29T20:48:23.199Z,100537.94
2023-03-29T20:50:50.722Z,100525.91
2023-03-29T20:53:19.372Z,100530.47
2023-03-29T20:55:46.022Z,100528.88
2023-03-29T20:58:12.751Z,100533.44
2023-03-29T21:00:40.368Z,100529.25
2023-03-29T21:03:08.328Z,100525.03
2023-03-29T21:05:35.782Z,100515.78
2023-03-29T21:08:04.508Z,100514.19
2023-03-29T21:10:31.213Z,100509.16
2023-03-29T21:13:02.642Z,100504.75
2023-03-29T21:15:30.944Z,100507.00
2023-03-29T21:17:58.442Z,100504.22
2023-03-29T21:20:25.637Z,100501.25
2023-03-29T21:22:52.248Z,100501.25
2023-03-29T21:25:19.227Z,100496.03
2023-03-29T21:27:46.030Z,100493.63
2023-03-29T21:30:13.022Z,100475.22
2023-03-29T21:32:40.121Z,100480.44
2023-03-29T21:35:07.466Z,100465.03
2023-03-29T21:37:34.018Z,100460.59
2023-03-29T21:40:00.690Z,100457.38
2023-03-29T21:42:27.227Z,100464.22
2023-03-29T21:44:53.806Z,100459.97
2023-03-29T21:47:20.588Z,100457.22
2023-03-29T21:49:47.212Z,100451.81
2023-03-29T21:52:13.784Z,100454.22
2023-03-29T21:54:40.372Z,100445.44
2023-03-29T21:57:06.956Z,100438.44
2023-03-29T21:59:33.603Z,100430.63
2023-03-29T22:02:00.557Z,100436.00
2023-03-29T22:04:36.530Z,100433.59
2023-03-29T22:07:04.817Z,100430.19
2023-03-29T22:09:34.783Z,100427.59
2023-03-29T22:12:01.782Z,100418.81
2023-03-29T22:14:31.436Z,100420.41
2023-03-29T22:16:58.080Z,100414.03
2023-03-29T22:19:24.805Z,100427.63
2023-03-29T22:21:51.530Z,100422.88
2023-03-29T22:24:18.748Z,100425.13
2023-03-29T22:26:45.446Z,100424.56
2023-03-29T22:29:12.066Z,100412.78
2023-03-29T22:31:39.482Z,100400.56
2023-03-29T22:34:06.651Z,100410.97
2023-03-29T22:36:33.714Z,100389.34
2023-03-29T22:39:00.741Z,100395.72
2023-03-29T22:41:28.321Z,100394.31
2023-03-29T22:43:57.754Z,100388.03
2023-03-29T22:46:26.361Z,100385.84
2023-03-29T22:48:53.543Z,100380.03
2023-03-29T22:51:20.793Z,100376.63
2023-03-29T22:53:47.656Z,100381.81
2023-03-29T22:56:15.670Z,100381.81
2023-03-29T22:58:43.276Z,100380.03
2023-03-29T23:01:10.834Z,100378.81
2023-03-29T23:03:37.732Z,100366.81
2023-03-29T23:06:04.754Z,100364.00
2023-03-29T23:08:33.851Z,100358.81
2023-03-29T23:11:01.437Z,100345.81
2023-03-29T23:13:31.135Z,100343.59
2023-03-29T23:16:00.280Z,100346.56
2023-03-29T23:18:29.529Z,100351.97
2023-03-29T23:20:58.018Z,100354.75
2023-03-29T23:23:26.921Z,100347.34
2023-03-29T23:25:55.462Z,100341.69
2023-03-29T23:28:25.116Z,100340.88
2023-03-29T23:31:06.217Z,100335.31
2023-03-29T23:33:35.616Z,100343.53
2023-03-29T23:36:04.446Z,100335.72
2023-03-29T23:38:35.213Z,100335.72
2023-03-29T23:41:04.243Z,100337.53
2023-03-29T23:43:33.710Z,100339.69
2023-03-29T23:46:02.861Z,100329.28
2023-03-29T23:48:30.223Z,100324.91
2023-03-29T23:50:59.917Z,100326.91
2023-03-29T23:53:28.947Z,100315.88
2023-03-29T23:56:05.801Z,100310.06
2023-03-29T23:58:33.404Z,100302.03
